RYR1UL LIEE-LIRA
Flight info
| Callsign | RYR1UL |
|---|---|
| Flight time | 0h 46m |
| Altitude | 34000 |
| Route | KOVAS DCT DEXUL DCT LULIX DCT ROXAN DCT ESINO |
| Aircraft | B738/M-SDE3FGILRWY/SB1 |
Departure
| Time | 2026-04-29 18:11 |
|---|---|
| Airport | Cagliari Elmas Airport (LIEE) |
Arrival
| Time | 2026-04-29 18:58 |
|---|---|
| Airport | Ciampino–G. B. Pastine International Airport (LIRA) |
| Time | Latitude | Longitude | Altitude | Speed | Heading |
|---|---|---|---|---|---|
| 2026-04-29 17:42 | 39.25262 | 9.05982 | 14 ft | 0 kts | 322° |
| 2026-04-29 18:03 | 39.25260 | 9.05983 | 14 ft | 2 kts | 322° |
| 2026-04-29 18:03 | 39.25240 | 9.06003 | 14 ft | 4 kts | 322° |
| 2026-04-29 18:04 | 39.25229 | 9.06014 | 14 ft | 2 kts | 322° |
| 2026-04-29 18:04 | 39.25214 | 9.06033 | 14 ft | 4 kts | 265° |
| 2026-04-29 18:04 | 39.25225 | 9.06058 | 14 ft | 4 kts | 232° |
| 2026-04-29 18:04 | 39.25230 | 9.06067 | 14 ft | 1 kts | 232° |
| 2026-04-29 18:07 | 39.25229 | 9.06065 | 16 ft | 1 kts | 232° |
| 2026-04-29 18:07 | 39.25212 | 9.06038 | 14 ft | 6 kts | 232° |
| 2026-04-29 18:07 | 39.25174 | 9.05975 | 15 ft | 11 kts | 232° |
| 2026-04-29 18:07 | 39.25158 | 9.05875 | 15 ft | 14 kts | 310° |
| 2026-04-29 18:08 | 39.25244 | 9.05775 | 15 ft | 19 kts | 318° |
| 2026-04-29 18:08 | 39.25352 | 9.05648 | 14 ft | 23 kts | 316° |
| 2026-04-29 18:08 | 39.25412 | 9.05448 | 15 ft | 26 kts | 287° |
| 2026-04-29 18:08 | 39.25530 | 9.05260 | 14 ft | 29 kts | 318° |
| 2026-04-29 18:09 | 39.25676 | 9.05091 | 14 ft | 27 kts | 318° |
| 2026-04-29 18:09 | 39.25812 | 9.04932 | 14 ft | 26 kts | 318° |
| 2026-04-29 18:09 | 39.25940 | 9.04785 | 15 ft | 24 kts | 318° |
| 2026-04-29 18:09 | 39.26059 | 9.04646 | 14 ft | 23 kts | 318° |
| 2026-04-29 18:10 | 39.26125 | 9.04477 | 14 ft | 22 kts | 272° |
| 2026-04-29 18:10 | 39.26022 | 9.04417 | 15 ft | 22 kts | 140° |
| 2026-04-29 18:10 | 39.25851 | 9.04616 | 15 ft | 59 kts | 138° |
| 2026-04-29 18:10 | 39.25374 | 9.05167 | 13 ft | 123 kts | 139° |
| 2026-04-29 18:11 | 39.24620 | 9.06029 | 212 ft | 154 kts | 140° |
| 2026-04-29 18:11 | 39.23802 | 9.06952 | 832 ft | 159 kts | 143° |
| 2026-04-29 18:11 | 39.22968 | 9.07912 | 1457 ft | 168 kts | 141° |
| 2026-04-29 18:11 | 39.22024 | 9.09008 | 1723 ft | 196 kts | 141° |
| 2026-04-29 18:12 | 39.20961 | 9.10252 | 1995 ft | 214 kts | 140° |
| 2026-04-29 18:12 | 39.19811 | 9.11512 | 2480 ft | 220 kts | 151° |
| 2026-04-29 18:12 | 39.18358 | 9.12001 | 3207 ft | 217 kts | 180° |
| 2026-04-29 18:12 | 39.16872 | 9.11630 | 3885 ft | 224 kts | 203° |
| 2026-04-29 18:13 | 39.15652 | 9.10349 | 4562 ft | 230 kts | 224° |
| 2026-04-29 18:13 | 39.14569 | 9.08821 | 5258 ft | 232 kts | 225° |
| 2026-04-29 18:13 | 39.13729 | 9.07027 | 5883 ft | 242 kts | 255° |
| 2026-04-29 18:13 | 39.13766 | 9.04855 | 6504 ft | 253 kts | 285° |
| 2026-04-29 18:14 | 39.14757 | 9.02857 | 6746 ft | 279 kts | 315° |
| 2026-04-29 18:14 | 39.16243 | 9.01180 | 7320 ft | 288 kts | 318° |
| 2026-04-29 18:14 | 39.17771 | 8.99481 | 8050 ft | 291 kts | 317° |
| 2026-04-29 18:14 | 39.19296 | 8.97752 | 8833 ft | 292 kts | 317° |
| 2026-04-29 18:15 | 39.20818 | 8.96003 | 9622 ft | 294 kts | 316° |
| 2026-04-29 18:15 | 39.22349 | 8.94255 | 10454 ft | 295 kts | 320° |
| 2026-04-29 18:15 | 39.24200 | 8.93095 | 11192 ft | 304 kts | 345° |
| 2026-04-29 18:15 | 39.26385 | 8.92773 | 11439 ft | 329 kts | 354° |
| 2026-04-29 18:16 | 39.28748 | 8.92630 | 11671 ft | 349 kts | 355° |
| 2026-04-29 18:16 | 39.31206 | 8.92504 | 12243 ft | 357 kts | 354° |
| 2026-04-29 18:16 | 39.33699 | 8.92363 | 12984 ft | 360 kts | 354° |
| 2026-04-29 18:16 | 39.36209 | 8.92198 | 13715 ft | 363 kts | 354° |
| 2026-04-29 18:17 | 39.38744 | 8.92017 | 14441 ft | 367 kts | 353° |
| 2026-04-29 18:17 | 39.41310 | 8.91839 | 15165 ft | 372 kts | 355° |
| 2026-04-29 18:17 | 39.43897 | 8.92330 | 15841 ft | 384 kts | 18° |
| 2026-04-29 18:17 | 39.46316 | 8.93851 | 16589 ft | 389 kts | 26° |
| 2026-04-29 18:18 | 39.48693 | 8.95577 | 17234 ft | 395 kts | 27° |
| 2026-04-29 18:18 | 39.51091 | 8.97351 | 17885 ft | 399 kts | 27° |
| 2026-04-29 18:18 | 39.53514 | 8.99131 | 18523 ft | 403 kts | 27° |
| 2026-04-29 18:18 | 39.55973 | 9.00916 | 19165 ft | 406 kts | 27° |
| 2026-04-29 18:19 | 39.58455 | 9.02699 | 19792 ft | 409 kts | 26° |
| 2026-04-29 18:19 | 39.60957 | 9.04489 | 20414 ft | 412 kts | 27° |
| 2026-04-29 18:19 | 39.63481 | 9.06295 | 21017 ft | 415 kts | 26° |
| 2026-04-29 18:19 | 39.66077 | 9.07807 | 21554 ft | 416 kts | 14° |
| 2026-04-29 18:20 | 39.68918 | 9.08757 | 22110 ft | 417 kts | 11° |
| 2026-04-29 18:20 | 39.71721 | 9.09584 | 22640 ft | 420 kts | 10° |
| 2026-04-29 18:20 | 39.74581 | 9.10447 | 23158 ft | 423 kts | 11° |
| 2026-04-29 18:20 | 39.77454 | 9.11368 | 23661 ft | 427 kts | 12° |
| 2026-04-29 18:21 | 39.80340 | 9.12327 | 24147 ft | 430 kts | 12° |
| 2026-04-29 18:21 | 39.83224 | 9.13430 | 24588 ft | 436 kts | 20° |
| 2026-04-29 18:21 | 39.85884 | 9.15359 | 25028 ft | 442 kts | 36° |
| 2026-04-29 18:21 | 39.88140 | 9.18091 | 25485 ft | 446 kts | 50° |
| 2026-04-29 18:22 | 39.89976 | 9.21363 | 25942 ft | 448 kts | 54° |
| 2026-04-29 18:22 | 39.91747 | 9.24729 | 26340 ft | 452 kts | 55° |
| 2026-04-29 18:22 | 39.93517 | 9.28131 | 26730 ft | 455 kts | 56° |
| 2026-04-29 18:22 | 39.95302 | 9.31546 | 27125 ft | 457 kts | 55° |
| 2026-04-29 18:23 | 39.97109 | 9.34969 | 27504 ft | 460 kts | 55° |
| 2026-04-29 18:23 | 39.98936 | 9.38402 | 27874 ft | 462 kts | 55° |
| 2026-04-29 18:23 | 40.00781 | 9.41852 | 28255 ft | 464 kts | 55° |
| 2026-04-29 18:23 | 40.02630 | 9.45306 | 28669 ft | 465 kts | 55° |
| 2026-04-29 18:24 | 40.04483 | 9.48765 | 29074 ft | 466 kts | 55° |
| 2026-04-29 18:24 | 40.06343 | 9.52239 | 29389 ft | 468 kts | 55° |
| 2026-04-29 18:24 | 40.08214 | 9.55741 | 29665 ft | 472 kts | 55° |
| 2026-04-29 18:24 | 40.10096 | 9.59268 | 29938 ft | 475 kts | 55° |
| 2026-04-29 18:25 | 40.11982 | 9.62809 | 30331 ft | 474 kts | 55° |
| 2026-04-29 18:25 | 40.13860 | 9.66338 | 30823 ft | 472 kts | 55° |
| 2026-04-29 18:25 | 40.15727 | 9.69852 | 31222 ft | 471 kts | 55° |
| 2026-04-29 18:25 | 40.17598 | 9.73378 | 31515 ft | 473 kts | 55° |
| 2026-04-29 18:26 | 40.19473 | 9.76915 | 31829 ft | 474 kts | 55° |
| 2026-04-29 18:26 | 40.21350 | 9.80459 | 32212 ft | 473 kts | 54° |
| 2026-04-29 18:26 | 40.23222 | 9.83994 | 32600 ft | 472 kts | 54° |
| 2026-04-29 18:26 | 40.25090 | 9.87532 | 32912 ft | 473 kts | 54° |
| 2026-04-29 18:27 | 40.26881 | 9.91148 | 33193 ft | 474 kts | 58° |
| 2026-04-29 18:27 | 40.28560 | 9.94862 | 33533 ft | 474 kts | 59° |
| 2026-04-29 18:27 | 40.30187 | 9.98622 | 33827 ft | 475 kts | 59° |
| 2026-04-29 18:27 | 40.31799 | 10.02404 | 34011 ft | 477 kts | 59° |
| 2026-04-29 18:28 | 40.33426 | 10.06212 | 33996 ft | 480 kts | 59° |
| 2026-04-29 18:28 | 40.36685 | 10.13765 | 33990 ft | 476 kts | 59° |
| 2026-04-29 18:29 | 40.39948 | 10.21260 | 33999 ft | 473 kts | 59° |
| 2026-04-29 18:29 | 40.43214 | 10.28757 | 34004 ft | 473 kts | 59° |
| 2026-04-29 18:30 | 40.46479 | 10.36273 | 34004 ft | 474 kts | 59° |
| 2026-04-29 18:30 | 40.49742 | 10.43807 | 34003 ft | 475 kts | 59° |
| 2026-04-29 18:31 | 40.53009 | 10.51367 | 33999 ft | 476 kts | 59° |
| 2026-04-29 18:31 | 40.56273 | 10.58942 | 34000 ft | 476 kts | 59° |
| 2026-04-29 18:32 | 40.59534 | 10.66531 | 34002 ft | 477 kts | 59° |
| 2026-04-29 18:32 | 40.64421 | 10.77937 | 34008 ft | 477 kts | 59° |
| 2026-04-29 18:33 | 40.67671 | 10.85546 | 34011 ft | 477 kts | 59° |
| 2026-04-29 18:33 | 40.70915 | 10.93159 | 34008 ft | 476 kts | 59° |
| 2026-04-29 18:34 | 40.73602 | 10.99481 | 34011 ft | 476 kts | 59° |
| 2026-04-29 18:34 | 40.77383 | 11.08401 | 33578 ft | 481 kts | 59° |
| 2026-04-29 18:35 | 40.79010 | 11.12246 | 33003 ft | 479 kts | 59° |
| 2026-04-29 18:35 | 40.80629 | 11.16076 | 32515 ft | 475 kts | 59° |
| 2026-04-29 18:35 | 40.82348 | 11.19766 | 32042 ft | 469 kts | 51° |
| 2026-04-29 18:35 | 40.84422 | 11.23045 | 31589 ft | 463 kts | 43° |
| 2026-04-29 18:36 | 40.86811 | 11.25843 | 31123 ft | 455 kts | 35° |
| 2026-04-29 18:36 | 40.89309 | 11.28380 | 30675 ft | 451 kts | 34° |
| 2026-04-29 18:36 | 40.91798 | 11.30888 | 30212 ft | 448 kts | 35° |
| 2026-04-29 18:36 | 40.94260 | 11.33383 | 29760 ft | 444 kts | 35° |
| 2026-04-29 18:37 | 40.96692 | 11.35866 | 29300 ft | 440 kts | 35° |
| 2026-04-29 18:37 | 40.99099 | 11.38342 | 28825 ft | 436 kts | 35° |
| 2026-04-29 18:37 | 41.01478 | 11.40803 | 28371 ft | 433 kts | 36° |
| 2026-04-29 18:37 | 41.03837 | 11.43250 | 27914 ft | 429 kts | 36° |
| 2026-04-29 18:38 | 41.06177 | 11.45680 | 27439 ft | 425 kts | 36° |
| 2026-04-29 18:38 | 41.08498 | 11.48090 | 26995 ft | 422 kts | 36° |
| 2026-04-29 18:38 | 41.10796 | 11.50483 | 26546 ft | 418 kts | 36° |
| 2026-04-29 18:38 | 41.13076 | 11.52861 | 26094 ft | 415 kts | 36° |
| 2026-04-29 18:39 | 41.15335 | 11.55219 | 25649 ft | 412 kts | 36° |
| 2026-04-29 18:39 | 41.17566 | 11.57549 | 25124 ft | 404 kts | 36° |
| 2026-04-29 18:39 | 41.19761 | 11.59845 | 24376 ft | 401 kts | 36° |
| 2026-04-29 18:39 | 41.21947 | 11.62129 | 23597 ft | 399 kts | 36° |
| 2026-04-29 18:40 | 41.24119 | 11.64401 | 22883 ft | 395 kts | 36° |
| 2026-04-29 18:40 | 41.26268 | 11.66651 | 22207 ft | 391 kts | 36° |
| 2026-04-29 18:40 | 41.28388 | 11.68874 | 21553 ft | 386 kts | 36° |
| 2026-04-29 18:40 | 41.30487 | 11.71076 | 20874 ft | 382 kts | 36° |
| 2026-04-29 18:41 | 41.36654 | 11.77554 | 18870 ft | 371 kts | 36° |
| 2026-04-29 18:41 | 41.38669 | 11.79675 | 18224 ft | 367 kts | 36° |
| 2026-04-29 18:42 | 41.40655 | 11.81765 | 17650 ft | 361 kts | 36° |
| 2026-04-29 18:42 | 41.42612 | 11.83824 | 17047 ft | 357 kts | 36° |
| 2026-04-29 18:42 | 41.44553 | 11.85866 | 16404 ft | 354 kts | 36° |
| 2026-04-29 18:42 | 41.46477 | 11.87893 | 15770 ft | 351 kts | 36° |
| 2026-04-29 18:43 | 41.48383 | 11.89902 | 15158 ft | 347 kts | 36° |
| 2026-04-29 18:43 | 41.50268 | 11.91890 | 14533 ft | 344 kts | 36° |
| 2026-04-29 18:43 | 41.52139 | 11.93866 | 13908 ft | 342 kts | 36° |
| 2026-04-29 18:43 | 41.53994 | 11.95827 | 13314 ft | 339 kts | 36° |
| 2026-04-29 18:44 | 41.55830 | 11.97768 | 12722 ft | 335 kts | 36° |
| 2026-04-29 18:44 | 41.57638 | 11.99682 | 12316 ft | 326 kts | 36° |
| 2026-04-29 18:44 | 41.59378 | 12.01528 | 12060 ft | 314 kts | 36° |
| 2026-04-29 18:44 | 41.61069 | 12.03316 | 11689 ft | 307 kts | 36° |
| 2026-04-29 18:45 | 41.62712 | 12.05048 | 11211 ft | 304 kts | 36° |
| 2026-04-29 18:45 | 41.64392 | 12.06818 | 10764 ft | 303 kts | 37° |
| 2026-04-29 18:45 | 41.66025 | 12.08540 | 10412 ft | 303 kts | 37° |
| 2026-04-29 18:45 | 41.67666 | 12.10274 | 10216 ft | 298 kts | 37° |
| 2026-04-29 18:46 | 41.69287 | 12.11987 | 10070 ft | 295 kts | 38° |
| 2026-04-29 18:46 | 41.70897 | 12.13691 | 9707 ft | 293 kts | 38° |
| 2026-04-29 18:46 | 41.72474 | 12.15362 | 9432 ft | 288 kts | 38° |
| 2026-04-29 18:46 | 41.74042 | 12.17025 | 9151 ft | 287 kts | 39° |
| 2026-04-29 18:47 | 41.75605 | 12.18681 | 8867 ft | 286 kts | 39° |
| 2026-04-29 18:47 | 41.77165 | 12.20334 | 8565 ft | 286 kts | 39° |
| 2026-04-29 18:47 | 41.78708 | 12.21974 | 8432 ft | 279 kts | 39° |
| 2026-04-29 18:47 | 41.80223 | 12.23551 | 8286 ft | 273 kts | 34° |
| 2026-04-29 18:48 | 41.81926 | 12.24576 | 8172 ft | 265 kts | 18° |
| 2026-04-29 18:48 | 41.83680 | 12.25327 | 7922 ft | 264 kts | 18° |
| 2026-04-29 18:48 | 41.85423 | 12.26073 | 7675 ft | 262 kts | 18° |
| 2026-04-29 18:48 | 41.87157 | 12.26824 | 7414 ft | 261 kts | 18° |
| 2026-04-29 18:49 | 41.88884 | 12.27582 | 7151 ft | 261 kts | 18° |
| 2026-04-29 18:49 | 41.90604 | 12.28342 | 6909 ft | 260 kts | 18° |
| 2026-04-29 18:49 | 41.92314 | 12.29102 | 6656 ft | 258 kts | 18° |
| 2026-04-29 18:49 | 41.94017 | 12.29866 | 6398 ft | 257 kts | 18° |
| 2026-04-29 18:50 | 41.95713 | 12.30629 | 6144 ft | 257 kts | 19° |
| 2026-04-29 18:50 | 41.97399 | 12.31388 | 5984 ft | 252 kts | 18° |
| 2026-04-29 18:50 | 41.99042 | 12.32127 | 5863 ft | 246 kts | 18° |
| 2026-04-29 18:50 | 42.00131 | 12.32617 | 5779 ft | 242 kts | 18° |
| 2026-04-29 18:51 | 42.01648 | 12.33493 | 5649 ft | 235 kts | 38° |
| 2026-04-29 18:51 | 42.02604 | 12.35172 | 5480 ft | 230 kts | 70° |
| 2026-04-29 18:51 | 42.02897 | 12.37256 | 5280 ft | 227 kts | 89° |
| 2026-04-29 18:51 | 42.02864 | 12.39368 | 5059 ft | 226 kts | 92° |
| 2026-04-29 18:52 | 42.02789 | 12.41472 | 4840 ft | 224 kts | 95° |
| 2026-04-29 18:52 | 42.02314 | 12.43431 | 4568 ft | 223 kts | 130° |
| 2026-04-29 18:52 | 42.01124 | 12.44672 | 4404 ft | 213 kts | 149° |
| 2026-04-29 18:52 | 41.99855 | 12.45684 | 4153 ft | 210 kts | 150° |
| 2026-04-29 18:53 | 41.98581 | 12.46612 | 3918 ft | 206 kts | 153° |
| 2026-04-29 18:53 | 41.97325 | 12.47490 | 3707 ft | 201 kts | 153° |
| 2026-04-29 18:53 | 41.96106 | 12.48334 | 3504 ft | 193 kts | 153° |
| 2026-04-29 18:53 | 41.94958 | 12.49123 | 3439 ft | 184 kts | 153° |
| 2026-04-29 18:54 | 41.93813 | 12.49911 | 3196 ft | 183 kts | 153° |
| 2026-04-29 18:54 | 41.92681 | 12.50690 | 2961 ft | 182 kts | 153° |
| 2026-04-29 18:54 | 41.91562 | 12.51462 | 2724 ft | 180 kts | 153° |
| 2026-04-29 18:54 | 41.90458 | 12.52225 | 2486 ft | 177 kts | 154° |
| 2026-04-29 18:55 | 41.89375 | 12.52972 | 2252 ft | 174 kts | 154° |
| 2026-04-29 18:55 | 41.88316 | 12.53702 | 2035 ft | 166 kts | 154° |
| 2026-04-29 18:55 | 41.87306 | 12.54400 | 1819 ft | 160 kts | 154° |
| 2026-04-29 18:55 | 41.86337 | 12.55068 | 1607 ft | 156 kts | 153° |
| 2026-04-29 18:56 | 41.85391 | 12.55721 | 1407 ft | 150 kts | 154° |
| 2026-04-29 18:56 | 41.84470 | 12.56345 | 1213 ft | 147 kts | 153° |
| 2026-04-29 18:56 | 41.83560 | 12.56989 | 993 ft | 148 kts | 153° |
| 2026-04-29 18:56 | 41.82642 | 12.57619 | 803 ft | 149 kts | 154° |
| 2026-04-29 18:57 | 41.81718 | 12.58256 | 605 ft | 150 kts | 153° |
| 2026-04-29 18:57 | 41.80802 | 12.58889 | 401 ft | 147 kts | 154° |
| 2026-04-29 18:57 | 41.79967 | 12.59462 | 393 ft | 110 kts | 152° |
| 2026-04-29 18:57 | 41.79434 | 12.59829 | 411 ft | 74 kts | 153° |
| 2026-04-29 18:58 | 41.79139 | 12.60031 | 425 ft | 31 kts | 153° |
| 2026-04-29 18:58 | 41.79028 | 12.59962 | 431 ft | 12 kts | 250° |
| 2026-04-29 18:58 | 41.79066 | 12.59881 | 431 ft | 12 kts | 331° |
| 2026-04-29 18:58 | 41.79149 | 12.59823 | 418 ft | 15 kts | 332° |
| 2026-04-29 18:59 | 41.79250 | 12.59752 | 411 ft | 18 kts | 333° |
| 2026-04-29 18:59 | 41.79373 | 12.59668 | 413 ft | 21 kts | 333° |
| 2026-04-29 18:59 | 41.79507 | 12.59577 | 406 ft | 23 kts | 333° |
| 2026-04-29 18:59 | 41.79652 | 12.59477 | 401 ft | 23 kts | 333° |
| 2026-04-29 19:00 | 41.79797 | 12.59376 | 393 ft | 24 kts | 333° |
| 2026-04-29 19:00 | 41.79944 | 12.59275 | 389 ft | 23 kts | 332° |
| 2026-04-29 19:00 | 41.80093 | 12.59173 | 382 ft | 24 kts | 333° |
| 2026-04-29 19:00 | 41.80177 | 12.59085 | 376 ft | 14 kts | 264° |
| 2026-04-29 19:01 | 41.80136 | 12.59003 | 374 ft | 10 kts | 232° |
| 2026-04-29 19:01 | 41.80095 | 12.58935 | 374 ft | 9 kts | 223° |
| 2026-04-29 19:01 | 41.80050 | 12.58955 | 377 ft | 5 kts | 124° |
| 2026-04-29 19:01 | 41.80040 | 12.58975 | 378 ft | 1 kts | 123° |
| 2026-04-29 19:02 | 41.80039 | 12.58977 | 378 ft | 0 kts | 123° |